Time;durP1;ratioP1;P1;durP2;ratioP2;P2;SDS_P1;SDS_P2;PMS_P1;PMS_P2;Temp;Humidity;BMP_temperature;BMP_pressure;BME280_temperature;BME280_humidity;BME280_pressure;Samples;Min_cycle;Max_cycle;Signal;HPM_P1;HPM_P2
2023/01/15 00:01:33;;;;;;;0.50;0.50;;;;;;;10.45;100.00;96986.19;5074364;28;20579;-78
2023/01/15 00:04:02;;;;;;;0.50;0.50;;;;;;;10.47;100.00;96985.06;5073886;28;20322;-77
2023/01/15 00:06:29;;;;;;;0.60;0.60;;;;;;;10.52;100.00;96974.13;5073944;28;20228;-77
2023/01/15 00:08:56;;;;;;;0.60;0.60;;;;;;;10.51;100.00;96980.38;5073205;28;20762;-77
2023/01/15 00:11:23;;;;;;;1.00;0.50;;;;;;;10.50;100.00;96970.75;5073623;28;20214;-79
2023/01/15 00:13:51;;;;;;;0.53;0.53;;;;;;;10.48;100.00;96964.78;5072500;28;20208;-79
2023/01/15 00:16:20;;;;;;;0.73;0.60;;;;;;;10.49;100.00;96961.19;5073975;28;20693;-77
2023/01/15 00:18:51;;;;;;;0.90;0.50;;;;;;;10.48;100.00;96967.44;5073430;28;20211;-79
2023/01/15 00:21:18;;;;;;;1.00;0.53;;;;;;;10.45;100.00;96954.50;5073764;28;20213;-79
2023/01/15 00:29:16;;;;;;;0.70;0.50;;;;;;;10.50;100.00;96947.00;5073021;28;20259;-77
2023/01/15 00:31:50;;;;;;;0.60;0.50;;;;;;;10.61;100.00;96938.97;5073641;28;20553;-77
2023/01/15 00:34:18;;;;;;;0.50;0.47;;;;;;;10.59;100.00;96943.56;5073435;28;20690;-77
2023/01/15 00:36:44;;;;;;;0.47;0.47;;;;;;;10.57;100.00;96937.56;5073217;28;20228;-77
2023/01/15 00:39:11;;;;;;;0.50;0.50;;;;;;;10.59;100.00;96935.63;5072680;28;20215;-77
2023/01/15 00:41:37;;;;;;;1.13;0.60;;;;;;;10.66;100.00;96931.47;5073323;28;20208;-79
2023/01/15 00:44:04;;;;;;;0.97;0.60;;;;;;;10.63;100.00;96910.59;5073476;28;20229;-78
2023/01/15 00:46:31;;;;;;;0.40;0.40;;;;;;;10.69;100.00;96904.75;5073163;28;20227;-78
2023/01/15 00:48:57;;;;;;;1.60;0.43;;;;;;;10.68;100.00;96911.03;5072479;28;20211;-78
2023/01/15 00:51:25;;;;;;;0.90;0.60;;;;;;;10.71;100.00;96911.59;5073072;28;20208;-78
2023/01/15 00:53:51;;;;;;;0.47;0.47;;;;;;;10.72;100.00;96907.16;5073269;28;20209;-78
2023/01/15 00:56:18;;;;;;;1.00;0.40;;;;;;;10.66;100.00;96902.41;5073064;28;20596;-78
2023/01/15 00:58:46;;;;;;;1.07;0.50;;;;;;;10.68;100.00;96893.38;5072616;28;20303;-78
2023/01/15 01:01:13;;;;;;;0.87;0.40;;;;;;;10.67;100.00;96896.16;5072783;28;20262;-78
2023/01/15 01:03:40;;;;;;;1.90;0.43;;;;;;;10.66;100.00;96895.34;5072789;28;20211;-78
2023/01/15 01:06:09;;;;;;;2.23;0.57;;;;;;;10.65;100.00;96885.72;5072961;28;20232;-78
2023/01/15 01:08:36;;;;;;;0.40;0.40;;;;;;;10.65;100.00;96887.53;5072922;28;20258;-78
2023/01/15 01:11:09;;;;;;;0.80;0.63;;;;;;;10.59;100.00;96888.09;5072251;28;20211;-78
2023/01/15 01:13:36;;;;;;;0.40;0.40;;;;;;;10.61;100.00;96886.97;5072808;28;20208;-78
2023/01/15 01:16:04;;;;;;;0.33;0.33;;;;;;;10.67;100.00;96885.59;5072309;28;20224;-78
2023/01/15 01:18:31;;;;;;;0.63;0.60;;;;;;;10.62;100.00;96888.66;5072498;28;20692;-78
2023/01/15 01:20:57;;;;;;;0.60;0.60;;;;;;;10.59;100.00;96891.53;5071974;28;20209;-78
2023/01/15 01:23:24;;;;;;;0.60;0.57;;;;;;;10.62;100.00;96887.78;5072082;28;20216;-79
2023/01/15 01:25:52;;;;;;;0.50;0.40;;;;;;;10.70;100.00;96880.03;5072120;28;20238;-78
2023/01/15 01:28:18;;;;;;;0.50;0.50;;;;;;;10.71;100.00;96881.72;5072378;28;20212;-78
2023/01/15 01:30:45;;;;;;;0.40;0.40;;;;;;;10.70;100.00;96885.31;5071418;28;20210;-80
2023/01/15 01:33:11;;;;;;;0.60;0.40;;;;;;;10.66;100.00;96879.47;5072277;28;20213;-78
2023/01/15 01:35:38;;;;;;;0.73;0.57;;;;;;;10.70;100.00;96880.03;5072352;28;20226;-78
2023/01/15 01:38:04;;;;;;;0.67;0.50;;;;;;;10.70;100.00;96864.19;5072341;28;20211;-78
2023/01/15 01:40:31;;;;;;;0.40;0.40;;;;;;;10.69;99.86;96870.41;5071455;28;20210;-78
2023/01/15 01:42:59;;;;;;;1.80;0.50;;;;;;;10.67;99.97;96862.66;5072861;28;20407;-78
2023/01/15 01:45:27;;;;;;;0.50;0.50;;;;;;;10.72;99.16;96860.44;5071853;28;20242;-79
2023/01/15 01:47:56;;;;;;;0.87;0.57;;;;;;;10.63;100.00;96861.25;5072008;28;20210;-78
2023/01/15 01:50:23;;;;;;;0.40;0.40;;;;;;;10.67;100.00;96862.66;5071328;28;20210;-78
2023/01/15 01:52:56;;;;;;;0.30;0.30;;;;;;;10.67;100.00;96853.88;5072037;28;20212;-78
2023/01/15 01:55:25;;;;;;;0.50;0.40;;;;;;;10.66;100.00;96852.22;5071920;28;20727;-78
2023/01/15 01:57:57;;;;;;;0.67;0.50;;;;;;;10.68;100.00;96853.75;5071732;28;20246;-78
2023/01/15 02:00:25;;;;;;;1.57;0.50;;;;;;;10.66;100.00;96837.22;5068639;28;20347;-78
2023/01/15 02:02:53;;;;;;;0.67;0.57;;;;;;;10.74;99.71;96813.56;5071811;28;20222;-78
2023/01/15 02:05:28;;;;;;;0.50;0.47;;;;;;;10.73;100.00;96818.97;5071589;28;20234;-78
2023/01/15 02:07:55;;;;;;;0.60;0.50;;;;;;;10.74;99.59;96818.00;5071597;28;20253;-78
2023/01/15 02:10:22;;;;;;;0.80;0.50;;;;;;;10.64;100.00;96827.75;5070812;28;20210;-78
2023/01/15 02:12:56;;;;;;;0.40;0.40;;;;;;;10.59;100.00;96822.03;5071568;28;20208;-78
2023/01/15 02:15:29;;;;;;;0.40;0.40;;;;;;;10.61;100.00;96822.72;5071551;28;20735;-78
2023/01/15 02:18:01;;;;;;;0.50;0.50;;;;;;;10.69;100.00;96820.22;5071532;28;20212;-78
2023/01/15 02:20:32;;;;;;;0.57;0.50;;;;;;;10.72;100.00;96814.66;5070800;28;20670;-77
2023/01/15 02:23:21;;;;;;;0.87;0.40;;;;;;;10.62;100.00;96808.53;5071538;28;20211;-78
2023/01/15 02:26:02;;;;;;;0.40;0.40;;;;;;;10.60;100.00;96810.50;5069021;28;20238;-78
2023/01/15 02:28:33;;;;;;;0.63;0.40;;;;;;;10.66;100.00;96804.66;5071692;28;20215;-78
2023/01/15 02:31:05;;;;;;;0.30;0.30;;;;;;;10.74;100.00;96807.44;5070442;28;20211;-78
2023/01/15 02:33:36;;;;;;;0.30;0.30;;;;;;;10.82;100.00;96789.09;5071824;28;20216;-78
2023/01/15 02:36:06;;;;;;;0.87;0.30;;;;;;;10.88;100.00;96789.34;5071706;28;20223;-78
2023/01/15 02:38:36;;;;;;;0.33;0.33;;;;;;;10.92;100.00;96789.91;5072738;28;20215;-78
2023/01/15 02:41:06;;;;;;;0.30;0.30;;;;;;;10.94;100.00;96793.25;5071354;28;20205;-78
2023/01/15 02:43:37;;;;;;;0.33;0.30;;;;;;;10.99;100.00;96798.94;5071792;28;20211;-77
2023/01/15 02:46:06;;;;;;;0.40;0.30;;;;;;;11.06;100.00;96797.41;5071755;28;20238;-78
2023/01/15 02:48:36;;;;;;;0.30;0.30;;;;;;;11.06;100.00;96805.34;5071358;28;20219;-78
2023/01/15 02:51:10;;;;;;;0.33;0.20;;;;;;;11.08;100.00;96798.09;5071077;28;20204;-78
2023/01/15 02:53:39;;;;;;;0.30;0.30;;;;;;;11.05;100.00;96795.72;5071208;28;20208;-78
2023/01/15 02:56:12;;;;;;;0.30;0.30;;;;;;;11.03;100.00;96792.41;5070922;28;20227;-78
2023/01/15 02:58:43;;;;;;;0.23;0.23;;;;;;;11.01;100.00;96791.72;5071060;28;20223;-78
2023/01/15 03:01:14;;;;;;;0.30;0.30;;;;;;;10.96;100.00;96791.28;5070648;28;20214;-78
2023/01/15 03:03:46;;;;;;;0.30;0.30;;;;;;;10.94;100.00;96803.81;5071137;28;20222;-78
2023/01/15 03:06:18;;;;;;;0.30;0.30;;;;;;;10.97;100.00;96790.31;5070910;28;20231;-78
2023/01/15 03:08:45;;;;;;;0.20;0.20;;;;;;;10.98;100.00;96778.75;5070812;28;20224;-78
2023/01/15 03:11:14;;;;;;;0.47;0.40;;;;;;;11.02;100.00;96770.41;5070798;28;20214;-78
2023/01/15 03:13:47;;;;;;;0.40;0.40;;;;;;;11.00;100.00;96772.34;5071053;28;20210;-78
2023/01/15 03:16:35;;;;;;;0.40;0.30;;;;;;;11.02;100.00;96769.59;5070785;28;20230;-78
2023/01/15 03:19:09;;;;;;;0.30;0.30;;;;;;;11.02;100.00;96759.00;5070334;28;20201;-78
2023/01/15 03:21:44;;;;;;;0.30;0.30;;;;;;;11.03;100.00;96760.66;5070871;28;20211;-78
2023/01/15 03:24:12;;;;;;;0.20;0.20;;;;;;;11.05;100.00;96753.41;5070940;28;20224;-78
2023/01/15 03:26:39;;;;;;;0.30;0.30;;;;;;;11.01;100.00;96758.16;5070425;28;20677;-78
2023/01/15 03:29:08;;;;;;;0.20;0.20;;;;;;;11.04;100.00;96755.25;5069952;28;20263;-78
2023/01/15 03:31:36;;;;;;;0.30;0.30;;;;;;;11.07;100.00;96754.13;5070554;28;20207;-77
2023/01/15 03:34:03;;;;;;;0.50;0.40;;;;;;;11.13;100.00;96745.63;5070705;28;20671;-78
2023/01/15 03:36:30;;;;;;;0.40;0.30;;;;;;;11.14;100.00;96742.00;5070823;28;20224;-78
2023/01/15 03:38:56;;;;;;;0.30;0.30;;;;;;;11.19;100.00;96745.06;5070079;28;20216;-78
2023/01/15 03:41:29;;;;;;;0.20;0.20;;;;;;;11.25;100.00;96731.25;5070670;28;20218;-79
2023/01/15 03:44:06;;;;;;;0.60;0.30;;;;;;;11.33;100.00;96734.88;5070554;28;20219;-77
2023/01/15 03:46:54;;;;;;;0.50;0.30;;;;;;;11.35;100.00;96729.41;5071158;28;20258;-78
2023/01/15 03:49:29;;;;;;;0.30;0.30;;;;;;;11.41;100.00;96729.69;5073504;28;20209;-78
2023/01/15 03:52:02;;;;;;;0.23;0.23;;;;;;;11.46;100.00;96729.22;5074350;28;20305;-78
2023/01/15 03:54:38;;;;;;;0.30;0.30;;;;;;;11.50;100.00;96727.97;5074413;28;20230;-78
2023/01/15 03:57:11;;;;;;;0.93;0.37;;;;;;;11.53;99.69;96722.38;5075900;28;20229;-78
2023/01/15 03:59:41;;;;;;;0.57;0.30;;;;;;;11.53;99.79;96717.09;5077326;28;20211;-78
2023/01/15 04:02:11;;;;;;;0.20;0.20;;;;;;;11.55;99.04;96725.72;5075350;28;20213;-78
2023/01/15 04:04:40;;;;;;;0.67;0.30;;;;;;;11.57;98.40;96724.56;5075821;28;20217;-78
2023/01/15 04:07:07;;;;;;;0.30;0.30;;;;;;;11.63;97.92;96712.63;5081138;28;20255;-77
2023/01/15 04:09:37;;;;;;;0.27;0.27;;;;;;;11.64;97.33;96703.69;5075861;28;20204;-77
2023/01/15 04:12:05;;;;;;;0.20;0.20;;;;;;;11.62;97.38;96695.91;5080202;28;20690;-78
2023/01/15 04:14:33;;;;;;;0.20;0.20;;;;;;;11.66;97.44;96707.03;5074939;28;20201;-78
2023/01/15 04:16:59;;;;;;;0.27;0.27;;;;;;;11.71;96.82;96699.47;5075203;28;20230;-78
2023/01/15 04:19:27;;;;;;;0.30;0.30;;;;;;;11.72;96.48;96709.09;5074620;28;20211;-79
2023/01/15 04:21:53;;;;;;;0.30;0.30;;;;;;;11.70;96.53;96689.88;5075356;28;20256;-76
2023/01/15 04:24:20;;;;;;;0.90;0.30;;;;;;;11.74;96.20;96689.44;5075228;28;20210;-77
2023/01/15 04:26:46;;;;;;;0.20;0.20;;;;;;;11.72;96.70;96674.69;5078012;22;20240;-86
2023/01/15 04:29:13;;;;;;;0.30;0.30;;;;;;;11.73;96.20;96676.38;5052679;28;20214;-85
2023/01/15 04:31:39;;;;;;;0.20;0.20;;;;;;;11.72;96.22;96680.81;5053201;28;20220;-85
2023/01/15 04:34:06;;;;;;;0.20;0.20;;;;;;;11.77;95.99;96680.38;5053121;28;20214;-86
2023/01/15 04:36:35;;;;;;;0.20;0.20;;;;;;;11.75;95.54;96685.78;5053047;28;20721;-86
2023/01/15 04:39:01;;;;;;;0.30;0.30;;;;;;;11.77;95.28;96675.91;5052523;28;20214;-85
2023/01/15 04:44:12;;;;;;;0.17;0.17;;;;;;;11.79;95.66;96676.59;5078943;28;20223;-86
2023/01/15 04:46:40;;;;;;;0.83;0.37;;;;;;;11.74;95.39;96675.38;5078478;28;20323;-85
2023/01/15 04:49:09;;;;;;;0.10;0.10;;;;;;;11.72;95.95;96679.97;5077992;28;20208;-86
2023/01/15 04:51:38;;;;;;;0.30;0.30;;;;;;;11.77;95.64;96680.38;5077821;28;20272;-84
2023/01/15 04:54:06;;;;;;;0.30;0.30;;;;;;;11.72;96.23;96685.25;5077913;28;20192;-85
2023/01/15 04:56:38;;;;;;;0.30;0.30;;;;;;;11.69;97.88;96689.03;5072210;28;20227;-86
2023/01/15 04:59:05;;;;;;;0.20;0.20;;;;;;;11.63;99.45;96686.16;5051282;28;20211;-85
2023/01/15 05:01:31;;;;;;;0.20;0.20;;;;;;;11.58;99.32;96678.69;5052685;28;20259;-85
2023/01/15 05:03:58;;;;;;;0.33;0.30;;;;;;;11.53;100.00;96682.69;5052979;28;20213;-85
2023/01/15 05:06:24;;;;;;;0.73;0.20;;;;;;;11.60;99.41;96686.44;5052656;28;20470;-85
2023/01/15 05:08:53;;;;;;;0.30;0.30;;;;;;;11.53;100.00;96695.91;5052042;28;20616;-85
2023/01/15 05:11:20;;;;;;;0.47;0.40;;;;;;;11.50;100.00;96731.44;5052417;28;20207;-85
2023/01/15 05:13:46;;;;;;;0.20;0.20;;;;;;;11.55;100.00;96768.06;5052763;28;20212;-85
2023/01/15 05:16:14;;;;;;;0.63;0.30;;;;;;;10.33;100.00;96786.56;5052537;28;20227;-85
2023/01/15 05:18:41;;;;;;;1.50;0.30;;;;;;;9.72;100.00;96782.34;5052278;28;20708;-85
2023/01/15 05:21:14;;;;;;;1.70;0.50;;;;;;;9.33;100.00;96794.53;5051646;28;20224;-86
2023/01/15 05:23:40;;;;;;;1.10;0.40;;;;;;;9.12;100.00;96798.97;5052329;28;20218;-85
2023/01/15 05:26:08;;;;;;;1.10;0.30;;;;;;;8.94;100.00;96805.78;5051914;28;20237;-86
2023/01/15 05:28:35;;;;;;;0.40;0.40;;;;;;;8.83;100.00;96789.19;5052441;28;20234;-86
2023/01/15 05:31:06;;;;;;;0.40;0.40;;;;;;;8.69;100.00;96823.75;5051584;28;20212;-86
2023/01/15 05:33:33;;;;;;;0.50;0.50;;;;;;;8.61;100.00;96810.38;5052177;28;20623;-86
2023/01/15 05:36:01;;;;;;;0.40;0.40;;;;;;;8.49;100.00;96837.69;5052093;28;20491;-86
2023/01/15 05:38:28;;;;;;;0.40;0.40;;;;;;;8.37;100.00;96828.16;5052025;28;20211;-86
2023/01/15 05:40:54;;;;;;;0.43;0.43;;;;;;;8.29;100.00;96836.69;5051162;28;20216;-86
2023/01/15 05:43:22;;;;;;;0.60;0.60;;;;;;;8.18;100.00;96835.84;5052238;28;20297;-86
2023/01/15 05:45:49;;;;;;;0.90;0.53;;;;;;;8.08;100.00;96834.91;5051898;28;20240;-86
2023/01/15 05:48:15;;;;;;;0.60;0.43;;;;;;;7.98;100.00;96826.91;5051927;28;20327;-86
2023/01/15 05:50:42;;;;;;;1.37;0.60;;;;;;;7.91;100.00;96830.97;5051046;28;20219;-86
2023/01/15 05:53:08;;;;;;;0.77;0.70;;;;;;;7.87;100.00;96839.22;5051660;28;20714;-86
2023/01/15 05:55:35;;;;;;;0.80;0.70;;;;;;;7.82;100.00;96842.22;5051844;28;20231;-85
2023/01/15 05:58:01;;;;;;;0.97;0.90;;;;;;;7.80;100.00;96832.78;5051711;28;20212;-86
2023/01/15 06:00:29;;;;;;;0.93;0.83;;;;;;;7.76;100.00;96853.22;5051063;28;20212;-85
2023/01/15 06:02:55;;;;;;;1.13;1.07;;;;;;;7.74;100.00;96864.81;5051707;28;20211;-86
2023/01/15 06:05:22;;;;;;;0.80;0.80;;;;;;;7.73;100.00;96861.34;5051929;28;20673;-86
2023/01/15 06:07:51;;;;;;;0.93;0.90;;;;;;;7.72;100.00;96851.78;5051910;28;20690;-85
2023/01/15 06:10:18;;;;;;;1.60;1.40;;;;;;;7.69;100.00;96852.03;5050808;28;20290;-86
2023/01/15 06:12:44;;;;;;;1.30;1.20;;;;;;;7.71;100.00;96859.81;5051586;28;20231;-85
2023/01/15 06:15:11;;;;;;;1.20;1.10;;;;;;;7.68;100.00;96870.56;5051556;28;20212;-86
2023/01/15 06:17:39;;;;;;;1.60;1.33;;;;;;;7.62;100.00;96864.00;5051225;28;20726;-86
2023/01/15 06:20:07;;;;;;;2.07;1.23;;;;;;;7.59;100.00;96866.84;5050634;28;20212;-85
2023/01/15 06:22:33;;;;;;;1.60;1.30;;;;;;;7.55;100.00;96875.09;5051536;28;20212;-86
2023/01/15 06:25:00;;;;;;;1.33;0.93;;;;;;;7.53;100.00;96888.34;5051360;28;20212;-85
2023/01/15 06:27:27;;;;;;;1.27;0.80;;;;;;;7.48;100.00;96890.47;5051024;28;20235;-85
2023/01/15 06:29:55;;;;;;;0.73;0.70;;;;;;;7.44;100.00;96878.56;5050624;28;20239;-85
2023/01/15 06:32:21;;;;;;;0.60;0.60;;;;;;;7.37;100.00;96889.63;5051178;28;20215;-85
2023/01/15 06:34:49;;;;;;;0.60;0.50;;;;;;;7.30;100.00;96886.63;5051039;28;20211;-86
2023/01/15 06:37:16;;;;;;;0.50;0.40;;;;;;;7.24;100.00;96886.28;5051239;28;20232;-86
2023/01/15 06:39:42;;;;;;;0.30;0.30;;;;;;;7.22;100.00;96898.69;5050439;28;20215;-85
2023/01/15 06:47:36;;;;;;;0.40;0.40;;;;;;;6.98;100.00;96916.28;5051083;28;20534;-85
2023/01/15 06:50:05;;;;;;;0.73;0.60;;;;;;;6.94;100.00;96930.59;5050281;28;20565;-85
2023/01/15 06:52:31;;;;;;;0.40;0.40;;;;;;;6.90;100.00;96939.63;5051038;28;20207;-86
2023/01/15 06:54:58;;;;;;;0.40;0.40;;;;;;;6.90;100.00;96951.94;5050969;28;20287;-85
2023/01/15 06:57:25;;;;;;;0.80;0.60;;;;;;;6.83;100.00;96955.97;5050812;28;20227;-85
2023/01/15 06:59:51;;;;;;;0.67;0.60;;;;;;;6.77;100.00;96970.38;5050132;28;20387;-85
2023/01/15 07:02:18;;;;;;;0.43;0.43;;;;;;;6.67;100.00;96960.66;5051367;28;20211;-85
2023/01/15 07:04:45;;;;;;;0.40;0.40;;;;;;;6.59;100.00;96970.88;5051031;28;20210;-85
2023/01/15 07:07:13;;;;;;;0.40;0.40;;;;;;;6.52;100.00;96980.94;5050810;28;20584;-85
2023/01/15 07:09:40;;;;;;;0.30;0.30;;;;;;;6.47;100.00;96993.56;5050099;28;20309;-85
2023/01/15 07:12:06;;;;;;;0.30;0.30;;;;;;;6.40;100.00;97008.06;5050845;28;20666;-85
2023/01/15 07:14:33;;;;;;;0.40;0.40;;;;;;;6.35;100.00;97007.53;5050818;28;20215;-85
2023/01/15 07:17:01;;;;;;;0.37;0.37;;;;;;;6.29;100.00;97007.16;5050710;28;20664;-85
2023/01/15 07:19:28;;;;;;;0.87;0.30;;;;;;;6.24;100.00;97017.94;5050170;28;20219;-86
2023/01/15 07:21:54;;;;;;;0.30;0.30;;;;;;;6.21;100.00;97023.41;5051837;28;20208;-85
2023/01/15 07:24:22;;;;;;;0.40;0.40;;;;;;;6.19;100.00;97030.56;5054745;28;20208;-85
2023/01/15 07:26:49;;;;;;;0.30;0.30;;;;;;;6.15;100.00;97029.09;5054251;28;20713;-86
2023/01/15 07:29:16;;;;;;;0.40;0.40;;;;;;;6.10;100.00;97028.56;5053957;28;20218;-85
2023/01/15 07:31:45;;;;;;;0.53;0.47;;;;;;;6.09;100.00;97028.66;5055979;28;20293;-85
2023/01/15 07:34:11;;;;;;;0.37;0.37;;;;;;;6.02;100.00;97035.28;5056435;28;20591;-85
2023/01/15 07:36:38;;;;;;;0.50;0.30;;;;;;;6.02;100.00;97049.25;5053991;28;20234;-85
2023/01/15 07:39:07;;;;;;;0.83;0.40;;;;;;;6.01;100.00;97042.31;5053418;28;20219;-86
2023/01/15 07:49:59;;;;;;;0.57;0.50;;;;;;;5.90;100.00;97044.81;5053443;28;20198;-85
2023/01/15 07:52:26;;;;;;;0.40;0.40;;;;;;;5.89;100.00;97053.66;5054124;28;20245;-85
2023/01/15 07:54:52;;;;;;;0.50;0.50;;;;;;;5.85;100.00;97046.91;5054191;28;20230;-86
2023/01/15 07:57:22;;;;;;;0.40;0.40;;;;;;;5.85;100.00;97073.13;5053788;28;20249;-86
2023/01/15 07:59:49;;;;;;;0.50;0.50;;;;;;;5.88;100.00;97088.69;5053221;28;20578;-83
2023/01/15 08:02:16;;;;;;;1.23;0.40;;;;;;;5.86;100.00;97085.28;5053617;28;20222;-84
2023/01/15 08:04:43;;;;;;;0.50;0.50;;;;;;;5.88;100.00;97109.66;5053739;28;20208;-82
2023/01/15 08:07:10;;;;;;;0.40;0.40;;;;;;;5.91;100.00;97104.19;5053623;28;20241;-81
2023/01/15 08:09:36;;;;;;;0.43;0.43;;;;;;;5.90;100.00;97099.03;5052953;28;20215;-82
2023/01/15 08:17:34;;;;;;;0.50;0.50;;;;;;;5.93;100.00;97128.50;5053536;28;20227;-82
2023/01/15 08:20:02;;;;;;;0.50;0.50;;;;;;;5.93;100.00;97128.50;5052949;28;20233;-80
2023/01/15 08:22:28;;;;;;;0.50;0.50;;;;;;;5.92;100.00;97121.59;5053451;28;20211;-79
2023/01/15 08:24:55;;;;;;;0.50;0.50;;;;;;;5.93;100.00;97123.28;5053199;28;20207;-80
2023/01/15 08:27:21;;;;;;;0.50;0.50;;;;;;;5.92;100.00;97116.34;5052912;28;20246;-79
2023/01/15 08:29:49;;;;;;;0.50;0.50;;;;;;;5.92;100.00;97126.84;5052502;28;20716;-86
2023/01/15 08:32:16;;;;;;;0.37;0.37;;;;;;;5.91;100.00;97126.94;5053268;28;20222;-83
2023/01/15 08:34:42;;;;;;;0.40;0.40;;;;;;;5.91;100.00;97134.78;5052050;28;20218;-82
2023/01/15 08:37:09;;;;;;;0.40;0.40;;;;;;;5.89;100.00;97141.94;5053009;28;20239;-81
2023/01/15 08:39:36;;;;;;;0.43;0.43;;;;;;;5.89;100.00;97142.78;5052030;28;20208;-81
2023/01/15 08:42:02;;;;;;;0.50;0.50;;;;;;;5.88;100.00;97129.78;5052337;28;20585;-80
2023/01/15 08:44:29;;;;;;;0.40;0.40;;;;;;;5.89;100.00;97132.31;5050632;28;20210;-82
2023/01/15 08:46:56;;;;;;;0.40;0.40;;;;;;;5.86;100.00;97142.97;5049482;28;20249;-82
2023/01/15 08:49:23;;;;;;;0.67;0.60;;;;;;;5.85;100.00;97151.78;5048528;28;20227;-81
2023/01/15 08:51:51;;;;;;;0.70;0.50;;;;;;;5.86;100.00;97161.34;5063112;28;20735;-81
2023/01/15 08:54:19;;;;;;;0.60;0.60;;;;;;;5.88;100.00;97166.47;5069142;28;20218;-82
2023/01/15 08:56:46;;;;;;;0.43;0.43;;;;;;;5.87;100.00;97178.75;5071256;28;20253;-82
2023/01/15 08:59:13;;;;;;;0.50;0.50;;;;;;;5.84;100.00;97185.97;5043254;28;20219;-82
2023/01/15 09:01:39;;;;;;;0.40;0.40;;;;;;;5.75;100.00;97192.59;5070266;28;20199;-82
2023/01/15 09:04:07;;;;;;;0.50;0.50;;;;;;;5.76;100.00;97199.56;5069547;28;20263;-82
2023/01/15 09:06:34;;;;;;;0.90;0.50;;;;;;;5.71;100.00;97206.88;5070598;28;20238;-82
2023/01/15 09:09:00;;;;;;;0.50;0.50;;;;;;;5.70;100.00;97209.59;5070152;28;20684;-82
2023/01/15 09:11:27;;;;;;;0.50;0.43;;;;;;;5.68;100.00;97207.06;5069079;28;20208;-82
2023/01/15 09:13:54;;;;;;;0.50;0.43;;;;;;;5.69;100.00;97206.13;5070063;28;20205;-82
2023/01/15 09:16:21;;;;;;;0.40;0.40;;;;;;;5.69;100.00;97213.97;5071153;28;20255;-82
2023/01/15 09:18:47;;;;;;;0.40;0.40;;;;;;;5.63;100.00;97227.47;5071125;28;20209;-82
2023/01/15 09:21:15;;;;;;;1.03;0.53;;;;;;;5.59;100.00;97239.13;5070399;28;20206;-81
2023/01/15 09:23:41;;;;;;;0.50;0.50;;;;;;;5.57;100.00;97235.72;5071204;28;20213;-78
2023/01/15 09:26:21;;;;;;;0.40;0.40;;;;;;;5.60;100.00;97240.78;5071024;28;20234;-82
2023/01/15 09:28:48;;;;;;;0.43;0.43;;;;;;;5.58;100.00;97242.69;5069142;28;20235;-81
2023/01/15 09:31:14;;;;;;;1.40;1.10;;;;;;;5.60;100.00;97256.53;5071143;28;20204;-83
2023/01/15 09:33:41;;;;;;;2.43;0.60;;;;;;;5.60;100.00;97272.25;5070913;28;20593;-80
2023/01/15 09:36:16;;;;;;;1.07;1.00;;;;;;;5.60;100.00;97280.09;5070179;28;20309;-82
2023/01/15 09:38:43;;;;;;;0.90;0.80;;;;;;;5.59;100.00;97274.97;5071194;28;20210;-83
2023/01/15 09:42:04;;;;;;;0.53;0.53;;;;;;;5.60;100.00;97272.25;5070558;28;20588;-82
2023/01/15 09:44:09;;;;;;;0.50;0.50;;;;;;;5.63;100.00;97277.28;5069804;28;20276;-84
2023/01/15 09:46:44;;;;;;;0.50;0.50;;;;;;;5.68;100.00;97269.97;5070527;28;20238;-83
2023/01/15 09:49:27;;;;;;;0.60;0.60;;;;;;;5.71;100.00;97275.03;5055353;28;20214;-82
2023/01/15 09:52:05;;;;;;;0.50;0.50;;;;;;;5.74;100.00;97285.31;5049270;28;20233;-82
2023/01/15 09:54:46;;;;;;;0.87;0.87;;;;;;;5.76;100.00;97299.19;5052784;28;20306;-82
2023/01/15 09:57:13;;;;;;;0.70;0.70;;;;;;;5.77;100.00;97295.63;5070299;28;20232;-82
2023/01/15 09:59:43;;;;;;;0.70;0.70;;;;;;;5.74;100.00;97306.28;5047948;28;20641;-82
2023/01/15 10:02:21;;;;;;;0.33;0.30;;;;;;;5.69;100.00;97307.53;5030754;28;20236;-82
2023/01/15 10:04:51;;;;;;;0.30;0.30;;;;;;;5.64;100.00;97307.81;5038554;28;20670;-82
2023/01/15 10:07:25;;;;;;;0.50;0.50;;;;;;;5.64;100.00;97320.94;5069222;28;20246;-82
2023/01/15 10:09:59;;;;;;;0.50;0.50;;;;;;;5.65;100.00;97325.22;5069317;28;20225;-82
2023/01/15 10:12:38;;;;;;;0.50;0.50;;;;;;;5.60;100.00;97323.81;5069934;28;20209;-83
2023/01/15 10:15:20;;;;;;;0.93;0.70;;;;;;;5.58;100.00;97323.94;5068912;28;20577;-82
2023/01/15 10:17:49;;;;;;;0.57;0.57;;;;;;;5.55;100.00;97326.72;5068775;28;20227;-82
2023/01/15 10:20:27;;;;;;;0.60;0.47;;;;;;;5.53;100.00;97331.22;5067526;28;20209;-80
2023/01/15 10:23:12;;;;;;;0.50;0.50;;;;;;;5.58;100.00;97325.69;5071214;28;20379;-82
2023/01/15 10:25:45;;;;;;;0.50;0.50;;;;;;;5.54;100.00;97330.28;5070841;28;20216;-80
2023/01/15 10:28:19;;;;;;;0.37;0.37;;;;;;;5.48;100.00;97335.91;5085657;22;20813;-83
2023/01/15 10:30:51;;;;;;;0.30;0.30;;;;;;;5.42;100.00;97346.75;5069906;28;20580;-83
2023/01/15 10:33:38;;;;;;;0.57;0.40;;;;;;;5.36;100.00;97344.50;5071248;28;20236;-83
2023/01/15 10:36:10;;;;;;;0.40;0.40;;;;;;;5.34;100.00;97349.03;5084958;28;20213;-83
2023/01/15 10:38:47;;;;;;;0.43;0.40;;;;;;;5.36;100.00;97357.63;5053062;28;20211;-84
2023/01/15 10:41:30;;;;;;;0.57;0.50;;;;;;;5.36;100.00;97362.00;5070108;28;20293;-86
2023/01/15 10:44:01;;;;;;;0.50;0.50;;;;;;;5.28;100.00;97356.41;5071343;28;20201;-86
2023/01/15 10:46:32;;;;;;;0.60;0.50;;;;;;;5.16;100.00;97349.28;5071539;28;20233;-86
2023/01/15 10:49:04;;;;;;;0.50;0.50;;;;;;;5.00;100.00;97359.81;5070161;28;20290;-86
2023/01/15 10:51:37;;;;;;;0.40;0.40;;;;;;;4.98;100.00;97360.84;5071498;28;20270;-86
2023/01/15 10:54:10;;;;;;;0.40;0.40;;;;;;;4.87;100.00;97366.72;5071878;28;20202;-86
2023/01/15 10:56:41;;;;;;;0.20;0.20;;;;;;;4.84;100.00;97373.91;5070533;28;20228;-86
2023/01/15 10:59:15;;;;;;;0.53;0.53;;;;;;;4.85;100.00;97381.69;5070455;28;20212;-86
2023/01/15 11:01:42;;;;;;;0.40;0.40;;;;;;;4.82;100.00;97381.03;5070915;28;20669;-87
2023/01/15 11:04:11;;;;;;;0.40;0.40;;;;;;;4.70;100.00;97374.69;5070806;28;20675;-86
2023/01/15 11:06:37;;;;;;;0.50;0.50;;;;;;;4.71;100.00;97383.41;5070938;28;20241;-86
2023/01/15 11:09:06;;;;;;;0.47;0.47;;;;;;;4.69;100.00;97380.88;5070222;28;20589;-86
2023/01/15 11:20:01;;;;;;;0.40;0.40;;;;;;;4.63;100.00;97410.00;5070080;28;20235;-85
2023/01/15 11:22:28;;;;;;;0.57;0.57;;;;;;;4.60;100.00;97406.72;5070528;28;20214;-86
2023/01/15 11:24:58;;;;;;;0.40;0.40;;;;;;;4.52;100.00;97415.00;5070993;28;20757;-81
2023/01/15 11:27:28;;;;;;;0.33;0.33;;;;;;;4.54;100.00;97417.53;5070684;28;20256;-83
2023/01/15 11:29:56;;;;;;;0.50;0.40;;;;;;;4.48;100.00;97415.28;5069940;28;20210;-82
2023/01/15 11:32:29;;;;;;;0.50;0.50;;;;;;;4.40;100.00;97426.16;5070659;28;20221;-82
2023/01/15 11:34:59;;;;;;;0.83;0.50;;;;;;;4.38;100.00;97417.56;5070624;28;20214;-82
2023/01/15 11:37:26;;;;;;;1.27;0.60;;;;;;;4.35;100.00;97425.56;5070811;28;20311;-83
2023/01/15 11:39:56;;;;;;;0.40;0.40;;;;;;;4.30;100.00;97426.78;5069937;28;20213;-83
2023/01/15 11:50:52;;;;;;;0.90;0.77;;;;;;;4.26;100.00;97415.63;5069899;28;20247;-83
2023/01/15 11:53:23;;;;;;;0.80;0.70;;;;;;;4.23;100.00;97407.94;5070692;28;20206;-83
2023/01/15 11:56:03;;;;;;;0.93;0.60;;;;;;;4.22;100.00;97419.34;5070356;28;20208;-82
2023/01/15 11:58:33;;;;;;;1.30;0.80;;;;;;;4.24;100.00;97409.66;5070400;28;20257;-82
2023/01/15 12:01:01;;;;;;;2.60;0.90;;;;;;;4.22;100.00;97427.19;5069892;28;20221;-84
2023/01/15 12:03:34;;;;;;;0.70;0.60;;;;;;;4.25;100.00;97421.78;5070357;28;20219;-85
2023/01/15 12:06:04;;;;;;;1.67;0.60;;;;;;;4.23;100.00;97412.34;5070164;28;20213;-82
2023/01/15 12:08:48;;;;;;;1.03;0.83;;;;;;;4.22;100.00;97415.91;5072361;28;20233;-79
2023/01/15 12:11:31;;;;;;;1.00;0.80;;;;;;;4.24;100.00;97417.50;5073983;28;20248;-82
2023/01/15 12:14:16;;;;;;;1.27;0.70;;;;;;;4.22;100.00;97403.66;5074136;28;20217;-86
2023/01/15 12:16:48;;;;;;;1.60;0.90;;;;;;;4.26;100.00;97405.16;5073908;28;20230;-83
2023/01/15 12:19:23;;;;;;;0.63;0.63;;;;;;;4.29;100.00;97418.06;5073423;28;20547;-83
2023/01/15 12:22:13;;;;;;;2.90;1.83;;;;;;;4.36;100.00;97414.22;5073775;28;20659;-82
2023/01/15 12:25:04;;;;;;;1.63;1.23;;;;;;;4.31;100.00;97405.75;5073720;28;20583;-83
2023/01/15 12:27:56;;;;;;;1.17;1.00;;;;;;;4.34;100.00;97408.19;5073463;28;20290;-83